createdAt,value
2022-08-08T06:39:06.824Z,47.34
2022-08-08T06:40:16.250Z,46.79
2022-08-08T06:41:19.737Z,46.85
2022-08-08T06:42:24.063Z,46.38
2022-08-08T07:00:10.291Z,45.46
2022-08-08T07:02:16.430Z,45.02
2022-08-08T07:02:36.695Z,45.14
2022-08-08T07:04:38.923Z,45.08
2022-08-08T07:21:19.445Z,44.14
2022-08-08T07:22:37.432Z,44.25
2022-08-08T07:24:05.998Z,44.12
2022-08-08T07:25:14.617Z,43.20
2022-08-08T07:40:29.294Z,42.54
2022-08-08T07:42:03.554Z,42.46
2022-08-08T07:43:01.209Z,43.14
2022-08-08T07:44:33.390Z,44.05
2022-08-08T07:45:34.577Z,44.42
2022-08-08T08:02:35.302Z,42.74
2022-08-08T08:03:30.994Z,42.55
2022-08-08T08:04:46.672Z,42.51
2022-08-08T08:05:54.081Z,41.91
2022-08-08T08:06:58.215Z,41.61
2022-08-08T08:08:05.236Z,41.51
2022-08-08T08:09:19.105Z,41.21
2022-08-08T08:26:13.955Z,39.62
2022-08-08T08:27:30.217Z,39.83
2022-08-08T08:28:31.751Z,38.56
2022-08-08T08:29:33.150Z,39.24
2022-08-08T08:30:38.990Z,38.26
2022-08-08T08:31:41.786Z,38.05
2022-08-08T08:32:51.237Z,37.70
2022-08-08T08:33:53.422Z,37.33
2022-08-08T08:34:54.874Z,36.87
2022-08-08T08:52:59.435Z,36.89
2022-08-08T08:54:02.977Z,36.45
2022-08-08T08:55:05.177Z,37.46
2022-08-08T08:56:07.249Z,38.67
2022-08-08T08:57:15.541Z,38.00
2022-08-08T08:58:32.890Z,37.39
2022-08-08T09:00:01.764Z,37.12
2022-08-08T09:01:08.988Z,36.40
2022-08-08T09:02:20.797Z,37.32
2022-08-08T09:03:46.094Z,36.49
2022-08-08T09:21:56.795Z,31.83
2022-08-08T09:23:10.585Z,31.43
2022-08-08T09:24:15.502Z,31.82
2022-08-08T09:25:22.786Z,33.44
2022-08-08T09:26:57.911Z,33.30
2022-08-08T09:28:01.526Z,32.87
2022-08-08T09:29:09.520Z,31.91
2022-08-08T09:30:17.898Z,30.69
2022-08-08T09:31:56.243Z,30.42
2022-08-08T09:33:11.952Z,31.15
2022-08-08T09:34:32.844Z,31.08
2022-08-08T09:35:38.435Z,31.31
2022-08-08T09:37:39.395Z,32.21
2022-08-08T09:38:54.670Z,33.54
2022-08-08T09:57:46.213Z,29.53
2022-08-08T09:58:57.701Z,29.01
2022-08-08T10:00:31.453Z,29.46
2022-08-08T10:02:01.930Z,31.16
2022-08-08T10:02:52.884Z,31.60
2022-08-08T10:03:57.403Z,31.57
2022-08-08T10:05:14.561Z,31.93
2022-08-08T10:06:18.864Z,30.59
2022-08-08T10:07:20.400Z,29.72
2022-08-08T10:08:21.892Z,28.95
2022-08-08T10:09:31.701Z,29.00
2022-08-08T10:10:38.877Z,30.33
2022-08-08T10:12:25.948Z,29.78
2022-08-08T10:13:26.050Z,28.48
2022-08-08T10:14:38.576Z,27.62
2022-08-08T10:15:41.804Z,27.68
2022-08-08T10:18:05.392Z,27.61
2022-08-08T10:18:35.124Z,27.58
2022-08-08T10:19:46.336Z,27.66
2022-08-08T10:21:25.145Z,28.37
2022-08-08T10:41:04.907Z,31.21
2022-08-08T10:42:14.812Z,31.00
2022-08-08T10:43:20.046Z,31.43
2022-08-08T10:44:29.473Z,29.67
2022-08-08T10:45:42.657Z,29.88
2022-08-08T10:47:15.756Z,29.86
2022-08-08T10:48:56.173Z,29.76
2022-08-08T10:50:04.767Z,28.67
2022-08-08T10:51:13.207Z,28.24
2022-08-08T10:52:34.357Z,29.07
2022-08-08T10:53:56.592Z,29.65
2022-08-08T10:55:13.668Z,29.41
2022-08-08T10:56:27.541Z,30.26
2022-08-08T10:57:50.255Z,29.90
2022-08-08T10:59:04.809Z,30.02
2022-08-08T11:00:10.316Z,28.57
2022-08-08T11:01:15.796Z,29.46
2022-08-08T11:02:25.346Z,31.36
2022-08-08T11:03:37.237Z,30.63
2022-08-08T11:04:53.832Z,30.62
2022-08-08T11:18:00.335Z,30.47
2022-08-08T11:18:51.516Z,29.86
2022-08-08T11:19:53.741Z,29.23
2022-08-08T11:20:55.356Z,29.52
2022-08-08T11:21:59.427Z,30.50
2022-08-08T11:23:05.540Z,29.91
2022-08-08T11:24:11.181Z,28.68
2022-08-08T11:25:13.682Z,30.00
2022-08-08T11:26:19.371Z,29.73
2022-08-08T11:27:29.246Z,27.62
2022-08-08T11:28:40.492Z,26.52
2022-08-08T11:29:58.289Z,26.13
2022-08-08T11:31:09.759Z,26.91
2022-08-08T11:32:14.075Z,28.29
2022-08-08T11:33:19.071Z,28.68
2022-08-08T11:34:31.678Z,27.67
2022-08-08T11:35:42.538Z,28.43
2022-08-08T11:36:45.138Z,29.61
2022-08-08T11:38:35.859Z,28.57
2022-08-08T11:39:17.439Z,28.93
2022-08-08T11:40:22.525Z,27.37
2022-08-08T11:41:32.358Z,27.41
2022-08-08T11:42:35.731Z,29.89
2022-08-08T11:43:38.841Z,30.72
2022-08-08T11:44:41.190Z,29.64
2022-08-08T11:46:09.077Z,29.53
2022-08-08T11:47:12.746Z,29.01
2022-08-08T11:48:20.369Z,29.98
2022-08-08T11:49:23.421Z,28.45
2022-08-08T11:50:25.662Z,27.50
2022-08-08T11:51:37.986Z,26.28
2022-08-08T11:52:47.269Z,25.84
2022-08-08T11:53:58.880Z,26.14
2022-08-08T11:55:28.696Z,25.80
2022-08-08T11:56:35.062Z,26.73
2022-08-08T11:57:36.599Z,26.62
2022-08-08T11:58:38.010Z,25.98
2022-08-08T12:00:00.553Z,26.34
2022-08-08T12:01:12.218Z,26.16
2022-08-08T12:02:41.596Z,25.47
2022-08-08T12:03:46.527Z,24.23
2022-08-08T12:04:48.133Z,23.80
2022-08-08T12:05:51.249Z,24.54
2022-08-08T12:07:03.557Z,24.81
2022-08-08T12:08:05.970Z,25.49
2022-08-08T12:09:08.496Z,24.65
2022-08-08T12:10:15.029Z,24.80
2022-08-08T12:11:26.838Z,25.07
2022-08-08T12:12:35.581Z,25.70
2022-08-08T12:28:15.638Z,24.21
2022-08-08T12:29:36.239Z,23.81
2022-08-08T12:30:48.027Z,23.04
2022-08-08T12:32:17.209Z,23.74
2022-08-08T12:33:37.286Z,24.83
2022-08-08T12:34:49.983Z,23.66
2022-08-08T12:35:53.117Z,24.28
2022-08-08T12:37:05.250Z,24.90
2022-08-08T12:38:09.693Z,24.62
2022-08-08T12:40:01.513Z,24.51
2022-08-08T12:40:57.286Z,25.10
2022-08-08T12:42:04.682Z,24.61
2022-08-08T12:43:06.922Z,23.45
2022-08-08T12:44:13.256Z,23.22
2022-08-08T12:45:54.111Z,22.76
2022-08-08T12:46:37.403Z,22.36
2022-08-08T12:48:04.796Z,22.13
2022-08-08T12:49:25.421Z,22.36
2022-08-08T12:50:38.208Z,22.60
2022-08-08T12:51:42.005Z,22.66
2022-08-08T12:52:55.764Z,22.11
2022-08-08T12:54:01.642Z,23.35
2022-08-08T12:55:13.659Z,24.49
2022-08-08T12:56:24.059Z,23.06
2022-08-08T12:57:26.148Z,22.43
2022-08-08T12:58:29.673Z,23.84
2022-08-08T12:59:44.660Z,24.08
2022-08-08T13:00:54.186Z,25.11
2022-08-08T13:02:00.293Z,26.83
2022-08-08T13:03:03.196Z,25.40
2022-08-08T13:04:18.815Z,24.63
2022-08-08T13:06:04.169Z,26.61
2022-08-08T13:07:00.754Z,26.68
2022-08-08T13:08:17.307Z,25.05
2022-08-08T13:09:33.643Z,25.70
2022-08-08T13:10:56.540Z,26.01
2022-08-08T13:12:24.567Z,25.32
2022-08-08T13:13:34.859Z,24.60
2022-08-08T13:14:39.493Z,24.24
2022-08-08T13:15:56.036Z,23.05
2022-08-08T13:16:59.386Z,24.36
2022-08-08T13:18:11.369Z,24.26
2022-08-08T13:19:17.967Z,25.85
2022-08-08T13:20:23.649Z,26.58
2022-08-08T13:21:48.941Z,25.00
2022-08-08T13:22:51.550Z,24.28
2022-08-08T13:24:00.809Z,24.09
2022-08-08T13:25:03.827Z,23.35
2022-08-08T13:26:15.694Z,23.64
2022-08-08T13:27:19.820Z,22.78
2022-08-08T13:28:28.552Z,22.56
2022-08-08T13:29:40.814Z,22.09
2022-08-08T13:30:43.463Z,22.00
2022-08-08T13:31:51.613Z,22.34
2022-08-08T13:32:57.926Z,22.99
2022-08-08T13:33:59.466Z,22.76
2022-08-08T13:35:11.787Z,22.08
2022-08-08T13:36:27.048Z,21.59
2022-08-08T13:38:04.560Z,21.37
2022-08-08T14:00:55.679Z,21.53
2022-08-08T14:02:00.364Z,21.15
2022-08-08T14:03:26.455Z,20.98
2022-08-08T14:04:26.075Z,21.82
2022-08-08T14:05:34.341Z,22.95
2022-08-08T14:06:44.863Z,22.22
2022-08-08T14:07:51.881Z,22.98
2022-08-08T14:08:56.862Z,22.44
2022-08-08T14:10:10.127Z,22.72
2022-08-08T14:11:19.326Z,23.92
2022-08-08T14:12:32.579Z,25.05
2022-08-08T14:13:35.438Z,25.12
2022-08-08T14:14:57.024Z,25.02
2022-08-08T14:16:03.400Z,25.71
2022-08-08T14:17:06.364Z,25.48
2022-08-08T14:18:36.719Z,26.34
2022-08-08T14:19:57.403Z,26.02
2022-08-08T14:21:02.495Z,26.38
2022-08-08T14:22:42.177Z,24.73
2022-08-08T14:24:04.402Z,25.71
2022-08-08T14:25:17.565Z,24.41
2022-08-08T14:26:27.968Z,25.14
2022-08-08T14:27:40.533Z,25.63
2022-08-08T14:28:51.423Z,25.42
2022-08-08T14:29:58.495Z,25.20
2022-08-08T14:31:10.608Z,26.17
2022-08-08T14:32:20.268Z,26.12
2022-08-08T14:33:34.046Z,24.52
2022-08-08T14:34:38.061Z,23.47
2022-08-08T14:35:41.571Z,23.65
2022-08-08T14:36:51.640Z,23.05
2022-08-08T14:38:03.822Z,22.32
2022-08-08T14:39:11.746Z,21.96
2022-08-08T14:40:23.886Z,21.54
2022-08-08T14:41:53.213Z,21.40
2022-08-08T14:42:55.214Z,21.39
2022-08-08T14:44:10.099Z,21.20
2022-08-08T14:45:14.971Z,21.84
2022-08-08T14:46:32.704Z,22.43
2022-08-08T14:48:00.823Z,24.53
2022-08-08T14:49:20.496Z,23.71
2022-08-08T14:50:37.897Z,24.82
2022-08-08T14:51:52.294Z,26.51
2022-08-08T14:52:59.516Z,25.06
2022-08-08T14:54:03.368Z,25.89
2022-08-08T14:55:06.301Z,24.73
2022-08-08T14:56:07.992Z,23.85
2022-08-08T14:57:11.507Z,22.56
2022-08-08T14:58:20.172Z,21.97
2022-08-08T14:59:31.659Z,21.25
2022-08-08T15:00:43.380Z,21.58
2022-08-08T15:01:49.826Z,21.71
2022-08-08T15:02:58.475Z,20.95
2022-08-08T15:04:08.459Z,20.39
2022-08-08T15:05:11.676Z,21.54
2022-08-08T15:06:16.578Z,20.62
2022-08-08T15:07:22.341Z,20.07
2022-08-08T15:08:35.641Z,20.31
2022-08-08T15:09:39.709Z,20.62
2022-08-08T15:10:41.317Z,19.63
2022-08-08T15:11:52.836Z,20.12
2022-08-08T15:12:55.050Z,19.59
2022-08-08T15:14:01.980Z,20.52
2022-08-08T15:15:06.770Z,22.26
2022-08-08T15:16:12.154Z,22.20
2022-08-08T15:17:16.967Z,20.92
2022-08-08T15:18:19.847Z,20.76
2022-08-08T15:19:23.769Z,21.56
2022-08-08T15:20:29.641Z,20.75
2022-08-08T15:21:31.122Z,20.71
2022-08-08T15:22:33.744Z,20.32
2022-08-08T15:23:39.313Z,20.43
2022-08-08T15:24:41.259Z,20.42
2022-08-08T15:25:42.822Z,20.35
2022-08-08T15:26:52.939Z,20.09
2022-08-08T15:28:03.402Z,20.11
2022-08-08T15:29:16.537Z,20.28
2022-08-08T15:30:18.012Z,20.21
2022-08-08T15:32:02.739Z,20.55
2022-08-08T15:32:43.496Z,20.61
2022-08-08T15:33:59.128Z,20.67
2022-08-08T15:35:04.308Z,21.22
2022-08-08T15:36:07.787Z,22.10
2022-08-08T15:37:09.698Z,21.88
2022-08-08T15:38:13.027Z,22.46
2022-08-08T15:39:15.249Z,21.27
2022-08-08T15:40:16.997Z,21.24
2022-08-08T15:41:24.564Z,20.87
2022-08-08T15:42:36.165Z,20.56
2022-08-08T15:43:40.322Z,20.49
2022-08-08T15:44:42.554Z,20.58
2022-08-08T15:45:45.124Z,20.58
2022-08-08T15:46:51.114Z,20.94
2022-08-08T15:48:04.209Z,20.64
2022-08-08T15:49:14.175Z,20.52
2022-08-08T15:50:20.784Z,20.64
2022-08-08T15:51:23.059Z,20.85
2022-08-08T15:52:34.348Z,21.05
2022-08-08T15:53:49.633Z,20.71
2022-08-08T15:54:52.593Z,20.92
2022-08-08T15:55:55.184Z,20.85
2022-08-08T15:56:56.685Z,21.28
2022-08-08T15:57:58.636Z,21.01
2022-08-08T15:59:01.389Z,20.98
2022-08-08T16:00:25.889Z,21.12
2022-08-08T16:01:40.531Z,20.53
2022-08-08T16:02:51.225Z,22.48
2022-08-08T16:03:54.097Z,22.64
2022-08-08T16:04:58.793Z,22.40
2022-08-08T16:06:01.820Z,22.10
2022-08-08T16:07:04.472Z,21.84
2022-08-08T16:08:09.509Z,21.55
2022-08-08T16:13:04.326Z,21.11
2022-08-08T16:13:05.365Z,21.37
2022-08-08T16:13:10.360Z,21.54
2022-08-08T16:13:31.924Z,21.29
2022-08-08T16:14:36.565Z,21.17
2022-08-08T16:15:57.534Z,21.08
2022-08-08T16:17:01.779Z,20.74
2022-08-08T16:18:11.657Z,21.27
2022-08-08T16:19:16.116Z,20.43
2022-08-08T16:20:25.015Z,20.88
2022-08-08T16:21:32.169Z,20.73
2022-08-08T16:22:34.524Z,20.63
2022-08-08T16:23:38.529Z,20.85
2022-08-08T16:24:43.382Z,20.78
2022-08-08T16:25:52.593Z,20.67
2022-08-08T16:26:55.099Z,20.90
2022-08-08T16:27:58.162Z,20.98
2022-08-08T16:28:59.845Z,21.25
2022-08-08T16:30:08.053Z,21.17
2022-08-08T16:31:10.073Z,21.20
2022-08-08T16:32:30.599Z,21.14
2022-08-08T16:33:38.467Z,20.83
2022-08-08T16:34:40.998Z,20.81
2022-08-08T16:35:42.372Z,21.26
2022-08-08T16:36:51.133Z,21.18
2022-08-08T16:37:52.697Z,21.11
2022-08-08T16:38:57.833Z,20.83
2022-08-08T16:40:03.542Z,21.26
2022-08-08T16:41:05.785Z,20.72
2022-08-08T16:42:07.325Z,21.13
2022-08-08T16:43:19.275Z,21.83
2022-08-08T16:44:27.775Z,21.43
2022-08-08T16:46:37.331Z,21.32
2022-08-08T16:46:57.160Z,21.53
2022-08-08T16:48:00.142Z,21.88
2022-08-08T16:49:01.962Z,21.58
2022-08-08T16:50:11.135Z,20.95
2022-08-08T16:55:00.055Z,22.26
2022-08-08T16:55:04.275Z,21.63
2022-08-08T16:55:06.020Z,21.68
2022-08-08T16:55:42.910Z,21.81
2022-08-08T16:57:00.041Z,21.95
2022-08-08T16:58:15.517Z,21.96
2022-08-08T16:59:17.879Z,22.00
2022-08-08T17:00:26.650Z,22.66
2022-08-08T17:01:35.433Z,22.25
2022-08-08T17:02:41.935Z,22.42
2022-08-08T17:04:01.285Z,22.76
2022-08-08T17:05:05.279Z,23.65
2022-08-08T17:06:35.310Z,23.53
2022-08-08T17:07:28.672Z,23.88
2022-08-08T17:08:30.212Z,23.89
2022-08-08T17:09:34.913Z,23.52
2022-08-08T17:10:57.454Z,23.63
2022-08-08T17:12:02.490Z,23.89
2022-08-08T17:13:06.545Z,24.53
2022-08-08T17:14:17.695Z,24.56
2022-08-08T17:15:23.081Z,24.30
2022-08-08T17:16:25.120Z,24.64
2022-08-08T17:18:01.745Z,24.67
2022-08-08T17:18:51.501Z,25.00
2022-08-08T17:19:53.346Z,25.04
2022-08-08T17:20:56.390Z,25.56
2022-08-08T17:22:01.564Z,25.24
2022-08-08T17:23:16.619Z,26.17
2022-08-08T17:24:27.971Z,25.73
2022-08-08T17:25:52.470Z,25.80
2022-08-08T17:26:53.718Z,25.23
2022-08-08T17:27:59.200Z,25.54
2022-08-08T17:29:04.462Z,25.63
2022-08-08T17:30:13.558Z,25.56
2022-08-08T17:31:45.892Z,25.57
2022-08-08T17:34:36.590Z,25.62
2022-08-08T17:34:48.295Z,26.07
2022-08-08T17:35:54.527Z,26.11
2022-08-08T17:37:00.507Z,26.59
2022-08-08T17:38:05.023Z,26.18
2022-08-08T17:39:46.306Z,26.01
2022-08-08T17:40:28.749Z,26.21
2022-08-08T17:41:39.173Z,26.12
2022-08-08T17:42:47.397Z,26.03
2022-08-08T17:44:01.336Z,26.56
2022-08-08T17:45:05.129Z,26.31
2022-08-08T17:46:07.808Z,26.55
2022-08-08T17:47:09.595Z,26.95
2022-08-08T17:48:29.171Z,26.81
2022-08-08T17:49:38.045Z,26.51
2022-08-08T17:50:44.200Z,26.77
2022-08-08T17:51:51.718Z,26.71
2022-08-08T17:52:56.524Z,26.86
2022-08-08T17:53:59.308Z,26.80
2022-08-08T17:56:03.660Z,26.93
2022-08-08T17:56:28.682Z,26.96
2022-08-08T17:57:35.381Z,26.69
2022-08-08T17:58:37.318Z,27.15
2022-08-08T17:59:45.607Z,27.48
2022-08-08T18:00:56.450Z,27.73
2022-08-08T18:02:03.150Z,27.50
2022-08-08T18:03:08.378Z,26.91
2022-08-08T18:04:20.004Z,27.38
2022-08-08T18:05:30.625Z,27.88
2022-08-08T18:06:51.952Z,27.95
2022-08-08T18:08:02.063Z,28.01
2022-08-08T18:09:05.594Z,28.25
2022-08-08T18:10:07.788Z,28.27
2022-08-08T18:11:15.684Z,27.95
2022-08-08T18:12:17.611Z,27.67
2022-08-08T18:13:19.570Z,28.37
2022-08-08T18:14:21.838Z,28.29
2022-08-08T18:15:24.275Z,28.73
2022-08-08T18:16:27.064Z,29.05
2022-08-08T18:18:09.828Z,29.05
2022-08-08T18:18:56.641Z,28.78
2022-08-08T18:20:36.472Z,29.25
2022-08-08T18:21:25.145Z,29.73
2022-08-08T18:22:51.055Z,29.35
2022-08-08T18:23:55.658Z,29.00
2022-08-08T18:24:57.696Z,29.25
2022-08-08T18:26:01.484Z,29.64
2022-08-08T18:27:17.597Z,29.65
2022-08-08T18:28:23.623Z,29.36
2022-08-08T18:29:35.107Z,29.91
2022-08-08T18:30:36.536Z,29.72
2022-08-08T18:31:39.202Z,29.62
2022-08-08T18:32:41.869Z,29.62
2022-08-08T18:34:12.181Z,29.04
